sensor_id;sensor_type;location;lat;lon;timestamp;P1;durP1;ratioP1;P2;durP2;ratioP2
21235;SDS011;10775;42.678;26.324;2023-02-01T00:01:09;5.53;;;2.67;;
21235;SDS011;10775;42.678;26.324;2023-02-01T00:03:35;6.78;;;3.40;;
21235;SDS011;10775;42.678;26.324;2023-02-01T00:06:02;8.27;;;3.47;;
21235;SDS011;10775;42.678;26.324;2023-02-01T00:08:28;8.18;;;2.78;;
21235;SDS011;10775;42.678;26.324;2023-02-01T00:11:04;4.88;;;2.67;;
21235;SDS011;10775;42.678;26.324;2023-02-01T00:13:31;5.35;;;3.25;;
21235;SDS011;10775;42.678;26.324;2023-02-01T00:16:02;3.03;;;2.08;;
21235;SDS011;10775;42.678;26.324;2023-02-01T00:18:32;4.13;;;2.50;;
21235;SDS011;10775;42.678;26.324;2023-02-01T00:20:58;4.97;;;2.10;;
21235;SDS011;10775;42.678;26.324;2023-02-01T00:23:23;4.22;;;2.22;;
21235;SDS011;10775;42.678;26.324;2023-02-01T00:25:49;4.18;;;2.38;;
21235;SDS011;10775;42.678;26.324;2023-02-01T00:28:14;4.10;;;2.60;;
21235;SDS011;10775;42.678;26.324;2023-02-01T00:30:40;3.60;;;2.08;;
21235;SDS011;10775;42.678;26.324;2023-02-01T00:33:06;4.40;;;2.50;;
21235;SDS011;10775;42.678;26.324;2023-02-01T00:35:33;6.72;;;3.00;;
21235;SDS011;10775;42.678;26.324;2023-02-01T00:37:59;4.82;;;2.60;;
21235;SDS011;10775;42.678;26.324;2023-02-01T00:40:25;5.75;;;2.70;;
21235;SDS011;10775;42.678;26.324;2023-02-01T00:42:51;4.22;;;2.38;;
21235;SDS011;10775;42.678;26.324;2023-02-01T00:45:17;4.80;;;2.63;;
21235;SDS011;10775;42.678;26.324;2023-02-01T00:47:43;5.40;;;2.45;;
21235;SDS011;10775;42.678;26.324;2023-02-01T00:50:08;4.28;;;2.28;;
21235;SDS011;10775;42.678;26.324;2023-02-01T00:52:35;3.95;;;2.30;;
21235;SDS011;10775;42.678;26.324;2023-02-01T00:55:00;3.67;;;2.22;;
21235;SDS011;10775;42.678;26.324;2023-02-01T00:57:26;4.75;;;2.30;;
21235;SDS011;10775;42.678;26.324;2023-02-01T00:59:51;4.60;;;2.25;;
21235;SDS011;10775;42.678;26.324;2023-02-01T01:02:17;4.35;;;2.33;;
21235;SDS011;10775;42.678;26.324;2023-02-01T01:04:42;4.57;;;2.40;;
21235;SDS011;10775;42.678;26.324;2023-02-01T01:07:08;4.53;;;1.02;;
21235;SDS011;10775;42.678;26.324;2023-02-01T01:09:33;3.65;;;2.10;;
21235;SDS011;10775;42.678;26.324;2023-02-01T01:11:59;3.65;;;2.15;;
21235;SDS011;10775;42.678;26.324;2023-02-01T01:14:28;3.92;;;2.30;;
21235;SDS011;10775;42.678;26.324;2023-02-01T01:16:54;3.47;;;2.05;;
21235;SDS011;10775;42.678;26.324;2023-02-01T01:19:20;4.75;;;2.67;;
21235;SDS011;10775;42.678;26.324;2023-02-01T01:21:45;4.22;;;2.50;;
21235;SDS011;10775;42.678;26.324;2023-02-01T01:24:11;3.88;;;2.30;;
21235;SDS011;10775;42.678;26.324;2023-02-01T01:26:37;4.43;;;2.33;;
21235;SDS011;10775;42.678;26.324;2023-02-01T01:29:02;3.28;;;1.95;;
21235;SDS011;10775;42.678;26.324;2023-02-01T01:31:28;4.80;;;2.78;;
21235;SDS011;10775;42.678;26.324;2023-02-01T01:33:56;4.68;;;2.30;;
21235;SDS011;10775;42.678;26.324;2023-02-01T01:36:23;3.47;;;1.50;;
21235;SDS011;10775;42.678;26.324;2023-02-01T01:38:49;4.85;;;2.30;;
21235;SDS011;10775;42.678;26.324;2023-02-01T01:41:19;3.90;;;2.40;;
21235;SDS011;10775;42.678;26.324;2023-02-01T01:46:21;4.25;;;1.88;;
21235;SDS011;10775;42.678;26.324;2023-02-01T01:48:50;4.45;;;2.10;;
21235;SDS011;10775;42.678;26.324;2023-02-01T01:51:30;3.25;;;2.00;;
21235;SDS011;10775;42.678;26.324;2023-02-01T01:56:37;4.63;;;1.98;;
21235;SDS011;10775;42.678;26.324;2023-02-01T01:59:03;4.05;;;2.13;;
21235;SDS011;10775;42.678;26.324;2023-02-01T02:01:30;4.47;;;2.47;;
21235;SDS011;10775;42.678;26.324;2023-02-01T02:03:56;4.13;;;2.45;;
21235;SDS011;10775;42.678;26.324;2023-02-01T02:09:04;4.13;;;2.25;;
21235;SDS011;10775;42.678;26.324;2023-02-01T02:11:30;3.13;;;2.17;;
21235;SDS011;10775;42.678;26.324;2023-02-01T02:13:55;4.93;;;2.35;;
21235;SDS011;10775;42.678;26.324;2023-02-01T02:17:06;4.70;;;2.42;;
21235;SDS011;10775;42.678;26.324;2023-02-01T02:44:03;3.00;;;2.15;;
21235;SDS011;10775;42.678;26.324;2023-02-01T02:46:34;4.53;;;2.40;;
21235;SDS011;10775;42.678;26.324;2023-02-01T02:49:21;3.15;;;1.40;;
21235;SDS011;10775;42.678;26.324;2023-02-01T02:52:04;4.55;;;2.20;;
21235;SDS011;10775;42.678;26.324;2023-02-01T02:54:57;4.40;;;2.00;;
21235;SDS011;10775;42.678;26.324;2023-02-01T02:57:26;4.25;;;2.30;;
21235;SDS011;10775;42.678;26.324;2023-02-01T03:00:17;4.53;;;1.95;;
21235;SDS011;10775;42.678;26.324;2023-02-01T03:03:04;3.00;;;1.70;;
21235;SDS011;10775;42.678;26.324;2023-02-01T03:05:50;2.65;;;1.73;;
21235;SDS011;10775;42.678;26.324;2023-02-01T03:08:22;3.28;;;1.90;;
21235;SDS011;10775;42.678;26.324;2023-02-01T03:16:30;4.28;;;2.40;;
21235;SDS011;10775;42.678;26.324;2023-02-01T03:24:03;4.32;;;2.08;;
21235;SDS011;10775;42.678;26.324;2023-02-01T03:26:34;3.33;;;2.15;;
21235;SDS011;10775;42.678;26.324;2023-02-01T03:29:23;3.67;;;1.95;;
21235;SDS011;10775;42.678;26.324;2023-02-01T03:31:54;4.72;;;2.58;;
21235;SDS011;10775;42.678;26.324;2023-02-01T03:34:20;4.93;;;2.30;;
21235;SDS011;10775;42.678;26.324;2023-02-01T03:39:35;3.60;;;2.00;;
21235;SDS011;10775;42.678;26.324;2023-02-01T03:42:17;3.58;;;1.92;;
21235;SDS011;10775;42.678;26.324;2023-02-01T03:44:50;4.85;;;2.08;;
21235;SDS011;10775;42.678;26.324;2023-02-01T03:47:33;5.38;;;2.50;;
21235;SDS011;10775;42.678;26.324;2023-02-01T03:50:04;4.45;;;2.00;;
21235;SDS011;10775;42.678;26.324;2023-02-01T03:55:05;5.32;;;1.98;;
21235;SDS011;10775;42.678;26.324;2023-02-01T03:57:34;3.97;;;2.40;;
21235;SDS011;10775;42.678;26.324;2023-02-01T04:02:33;3.53;;;2.17;;
21235;SDS011;10775;42.678;26.324;2023-02-01T04:04:59;3.88;;;2.13;;
21235;SDS011;10775;42.678;26.324;2023-02-01T04:07:24;6.80;;;4.55;;
21235;SDS011;10775;42.678;26.324;2023-02-01T04:09:50;3.90;;;2.25;;
21235;SDS011;10775;42.678;26.324;2023-02-01T04:12:15;4.97;;;2.42;;
21235;SDS011;10775;42.678;26.324;2023-02-01T04:14:41;3.30;;;1.90;;
21235;SDS011;10775;42.678;26.324;2023-02-01T04:17:06;3.47;;;1.85;;
21235;SDS011;10775;42.678;26.324;2023-02-01T04:19:32;2.88;;;1.63;;
21235;SDS011;10775;42.678;26.324;2023-02-01T04:21:57;5.32;;;2.60;;
21235;SDS011;10775;42.678;26.324;2023-02-01T04:24:23;6.38;;;2.75;;
21235;SDS011;10775;42.678;26.324;2023-02-01T04:26:48;6.25;;;2.78;;
21235;SDS011;10775;42.678;26.324;2023-02-01T04:29:14;5.28;;;2.53;;
21235;SDS011;10775;42.678;26.324;2023-02-01T04:31:39;5.00;;;3.00;;
21235;SDS011;10775;42.678;26.324;2023-02-01T04:34:05;4.75;;;2.45;;
21235;SDS011;10775;42.678;26.324;2023-02-01T04:36:30;5.35;;;3.00;;
21235;SDS011;10775;42.678;26.324;2023-02-01T04:38:56;5.88;;;2.95;;
21235;SDS011;10775;42.678;26.324;2023-02-01T04:41:21;4.68;;;2.60;;
21235;SDS011;10775;42.678;26.324;2023-02-01T04:43:48;6.85;;;3.10;;
21235;SDS011;10775;42.678;26.324;2023-02-01T04:46:16;5.70;;;2.55;;
21235;SDS011;10775;42.678;26.324;2023-02-01T04:48:41;5.40;;;2.80;;
21235;SDS011;10775;42.678;26.324;2023-02-01T04:51:07;5.97;;;3.05;;
21235;SDS011;10775;42.678;26.324;2023-02-01T04:53:33;4.80;;;2.30;;
21235;SDS011;10775;42.678;26.324;2023-02-01T04:55:59;7.10;;;3.17;;
21235;SDS011;10775;42.678;26.324;2023-02-01T04:58:24;4.30;;;2.35;;
21235;SDS011;10775;42.678;26.324;2023-02-01T05:00:50;4.53;;;2.28;;
21235;SDS011;10775;42.678;26.324;2023-02-01T05:03:16;6.05;;;2.63;;
21235;SDS011;10775;42.678;26.324;2023-02-01T05:05:42;3.90;;;2.13;;
21235;SDS011;10775;42.678;26.324;2023-02-01T05:08:08;3.42;;;1.90;;
21235;SDS011;10775;42.678;26.324;2023-02-01T05:10:33;4.55;;;2.45;;
21235;SDS011;10775;42.678;26.324;2023-02-01T05:12:59;5.47;;;2.55;;
21235;SDS011;10775;42.678;26.324;2023-02-01T05:15:43;8.43;;;3.42;;
21235;SDS011;10775;42.678;26.324;2023-02-01T05:18:11;2.85;;;1.75;;
21235;SDS011;10775;42.678;26.324;2023-02-01T05:20:37;3.40;;;1.90;;
21235;SDS011;10775;42.678;26.324;2023-02-01T05:23:02;3.80;;;2.20;;
21235;SDS011;10775;42.678;26.324;2023-02-01T05:25:28;4.35;;;2.47;;
21235;SDS011;10775;42.678;26.324;2023-02-01T05:27:54;4.28;;;2.13;;
21235;SDS011;10775;42.678;26.324;2023-02-01T05:30:19;4.55;;;1.95;;
21235;SDS011;10775;42.678;26.324;2023-02-01T05:32:45;3.50;;;1.50;;
21235;SDS011;10775;42.678;26.324;2023-02-01T05:35:10;3.17;;;1.70;;
21235;SDS011;10775;42.678;26.324;2023-02-01T05:37:36;2.45;;;1.50;;
21235;SDS011;10775;42.678;26.324;2023-02-01T05:40:02;4.07;;;2.00;;
21235;SDS011;10775;42.678;26.324;2023-02-01T05:42:28;2.58;;;1.58;;
21235;SDS011;10775;42.678;26.324;2023-02-01T05:44:53;3.17;;;1.80;;
21235;SDS011;10775;42.678;26.324;2023-02-01T05:47:19;2.70;;;1.45;;
21235;SDS011;10775;42.678;26.324;2023-02-01T05:49:45;1.67;;;0.85;;
21235;SDS011;10775;42.678;26.324;2023-02-01T05:52:11;2.28;;;1.60;;
21235;SDS011;10775;42.678;26.324;2023-02-01T05:54:37;1.55;;;1.00;;
21235;SDS011;10775;42.678;26.324;2023-02-01T05:57:02;6.22;;;2.33;;
21235;SDS011;10775;42.678;26.324;2023-02-01T05:59:28;5.28;;;2.53;;
21235;SDS011;10775;42.678;26.324;2023-02-01T06:01:54;4.55;;;2.17;;
21235;SDS011;10775;42.678;26.324;2023-02-01T06:04:20;3.17;;;1.83;;
21235;SDS011;10775;42.678;26.324;2023-02-01T06:06:45;4.18;;;1.60;;
21235;SDS011;10775;42.678;26.324;2023-02-01T06:09:11;3.40;;;1.60;;
21235;SDS011;10775;42.678;26.324;2023-02-01T06:11:36;3.55;;;2.15;;
21235;SDS011;10775;42.678;26.324;2023-02-01T06:14:02;5.07;;;2.58;;
21235;SDS011;10775;42.678;26.324;2023-02-01T06:16:28;4.13;;;1.80;;
21235;SDS011;10775;42.678;26.324;2023-02-01T06:18:53;4.95;;;1.90;;
21235;SDS011;10775;42.678;26.324;2023-02-01T06:21:19;3.60;;;1.90;;
21235;SDS011;10775;42.678;26.324;2023-02-01T06:23:54;5.43;;;2.15;;
21235;SDS011;10775;42.678;26.324;2023-02-01T06:26:22;2.97;;;1.50;;
21235;SDS011;10775;42.678;26.324;2023-02-01T06:28:48;4.68;;;2.03;;
21235;SDS011;10775;42.678;26.324;2023-02-01T06:31:14;4.97;;;2.35;;
21235;SDS011;10775;42.678;26.324;2023-02-01T06:33:40;4.07;;;2.08;;
21235;SDS011;10775;42.678;26.324;2023-02-01T06:36:06;3.13;;;1.63;;
21235;SDS011;10775;42.678;26.324;2023-02-01T06:38:33;4.07;;;2.15;;
21235;SDS011;10775;42.678;26.324;2023-02-01T06:41:00;4.90;;;2.50;;
21235;SDS011;10775;42.678;26.324;2023-02-01T06:43:27;3.00;;;1.63;;
21235;SDS011;10775;42.678;26.324;2023-02-01T06:45:53;4.30;;;2.28;;
21235;SDS011;10775;42.678;26.324;2023-02-01T06:48:24;4.40;;;2.15;;
21235;SDS011;10775;42.678;26.324;2023-02-01T06:50:49;4.57;;;2.25;;
21235;SDS011;10775;42.678;26.324;2023-02-01T06:53:15;5.63;;;2.10;;
21235;SDS011;10775;42.678;26.324;2023-02-01T06:55:41;5.93;;;2.83;;
21235;SDS011;10775;42.678;26.324;2023-02-01T06:58:06;4.15;;;2.35;;
21235;SDS011;10775;42.678;26.324;2023-02-01T07:00:32;8.50;;;4.15;;
21235;SDS011;10775;42.678;26.324;2023-02-01T07:02:58;7.15;;;3.38;;
21235;SDS011;10775;42.678;26.324;2023-02-01T07:05:24;5.55;;;2.83;;
21235;SDS011;10775;42.678;26.324;2023-02-01T07:07:50;2.47;;;1.60;;
21235;SDS011;10775;42.678;26.324;2023-02-01T07:10:16;4.90;;;2.75;;
21235;SDS011;10775;42.678;26.324;2023-02-01T07:12:42;3.50;;;1.75;;
21235;SDS011;10775;42.678;26.324;2023-02-01T07:15:08;1.00;;;0.88;;
21235;SDS011;10775;42.678;26.324;2023-02-01T07:17:33;3.85;;;1.85;;
21235;SDS011;10775;42.678;26.324;2023-02-01T07:19:59;3.00;;;1.60;;
21235;SDS011;10775;42.678;26.324;2023-02-01T07:22:26;5.38;;;2.70;;
21235;SDS011;10775;42.678;26.324;2023-02-01T07:24:52;3.10;;;1.90;;
21235;SDS011;10775;42.678;26.324;2023-02-01T07:27:18;2.65;;;1.73;;
21235;SDS011;10775;42.678;26.324;2023-02-01T07:29:45;2.65;;;1.58;;
21235;SDS011;10775;42.678;26.324;2023-02-01T07:32:10;3.13;;;1.67;;
21235;SDS011;10775;42.678;26.324;2023-02-01T07:34:36;2.55;;;1.27;;
21235;SDS011;10775;42.678;26.324;2023-02-01T07:37:01;2.90;;;1.88;;
21235;SDS011;10775;42.678;26.324;2023-02-01T07:39:28;4.47;;;3.05;;
21235;SDS011;10775;42.678;26.324;2023-02-01T07:41:53;4.15;;;2.38;;
21235;SDS011;10775;42.678;26.324;2023-02-01T07:44:19;4.63;;;3.60;;
21235;SDS011;10775;42.678;26.324;2023-02-01T07:46:48;5.97;;;2.63;;
21235;SDS011;10775;42.678;26.324;2023-02-01T07:49:14;3.42;;;1.95;;
21235;SDS011;10775;42.678;26.324;2023-02-01T07:51:40;2.22;;;1.65;;
21235;SDS011;10775;42.678;26.324;2023-02-01T07:54:06;3.20;;;1.77;;
21235;SDS011;10775;42.678;26.324;2023-02-01T07:56:31;3.85;;;1.92;;
21235;SDS011;10775;42.678;26.324;2023-02-01T07:58:57;2.53;;;1.38;;
21235;SDS011;10775;42.678;26.324;2023-02-01T08:01:25;1.63;;;0.90;;
21235;SDS011;10775;42.678;26.324;2023-02-01T08:03:56;2.95;;;1.67;;
21235;SDS011;10775;42.678;26.324;2023-02-01T08:06:26;5.70;;;1.35;;
21235;SDS011;10775;42.678;26.324;2023-02-01T08:08:54;3.08;;;1.33;;
21235;SDS011;10775;42.678;26.324;2023-02-01T08:11:20;2.63;;;1.70;;
21235;SDS011;10775;42.678;26.324;2023-02-01T08:13:47;3.75;;;2.30;;
21235;SDS011;10775;42.678;26.324;2023-02-01T08:16:13;4.97;;;2.47;;
21235;SDS011;10775;42.678;26.324;2023-02-01T08:18:40;3.45;;;2.38;;
21235;SDS011;10775;42.678;26.324;2023-02-01T08:21:07;2.47;;;1.30;;
21235;SDS011;10775;42.678;26.324;2023-02-01T08:23:34;13.48;;;4.85;;
21235;SDS011;10775;42.678;26.324;2023-02-01T08:26:10;5.85;;;2.08;;
21235;SDS011;10775;42.678;26.324;2023-02-01T08:28:39;2.42;;;1.55;;
21235;SDS011;10775;42.678;26.324;2023-02-01T08:31:11;4.55;;;2.30;;
21235;SDS011;10775;42.678;26.324;2023-02-01T08:33:42;10.15;;;4.65;;
21235;SDS011;10775;42.678;26.324;2023-02-01T08:36:09;2.65;;;1.60;;
21235;SDS011;10775;42.678;26.324;2023-02-01T08:38:36;7.70;;;3.85;;
21235;SDS011;10775;42.678;26.324;2023-02-01T08:41:07;8.38;;;3.63;;
21235;SDS011;10775;42.678;26.324;2023-02-01T08:43:34;1.95;;;1.55;;
21235;SDS011;10775;42.678;26.324;2023-02-01T08:46:00;6.22;;;3.17;;
21235;SDS011;10775;42.678;26.324;2023-02-01T08:48:26;5.00;;;2.28;;
21235;SDS011;10775;42.678;26.324;2023-02-01T08:50:52;2.17;;;1.67;;
21235;SDS011;10775;42.678;26.324;2023-02-01T08:53:17;6.53;;;1.80;;
21235;SDS011;10775;42.678;26.324;2023-02-01T08:55:45;1.95;;;1.45;;
21235;SDS011;10775;42.678;26.324;2023-02-01T08:58:12;8.10;;;3.33;;
21235;SDS011;10775;42.678;26.324;2023-02-01T09:00:39;4.63;;;2.63;;
21235;SDS011;10775;42.678;26.324;2023-02-01T09:03:05;3.85;;;2.00;;
21235;SDS011;10775;42.678;26.324;2023-02-01T09:05:34;4.72;;;2.55;;
21235;SDS011;10775;42.678;26.324;2023-02-01T09:07:59;6.13;;;2.45;;
21235;SDS011;10775;42.678;26.324;2023-02-01T09:10:25;5.88;;;2.40;;
21235;SDS011;10775;42.678;26.324;2023-02-01T09:12:51;2.22;;;1.45;;
21235;SDS011;10775;42.678;26.324;2023-02-01T09:15:17;8.23;;;3.08;;
21235;SDS011;10775;42.678;26.324;2023-02-01T09:17:42;18.75;;;7.55;;
21235;SDS011;10775;42.678;26.324;2023-02-01T09:20:08;4.60;;;2.38;;
21235;SDS011;10775;42.678;26.324;2023-02-01T09:22:34;5.85;;;1.90;;
21235;SDS011;10775;42.678;26.324;2023-02-01T09:25:00;9.68;;;3.47;;
21235;SDS011;10775;42.678;26.324;2023-02-01T09:27:26;2.33;;;1.48;;
21235;SDS011;10775;42.678;26.324;2023-02-01T09:29:51;7.63;;;4.03;;
21235;SDS011;10775;42.678;26.324;2023-02-01T09:32:19;6.57;;;2.10;;
21235;SDS011;10775;42.678;26.324;2023-02-01T09:34:45;18.33;;;7.32;;
21235;SDS011;10775;42.678;26.324;2023-02-01T09:37:11;2.47;;;1.50;;
21235;SDS011;10775;42.678;26.324;2023-02-01T09:39:37;2.13;;;1.83;;
21235;SDS011;10775;42.678;26.324;2023-02-01T09:45:20;5.47;;;2.92;;
21235;SDS011;10775;42.678;26.324;2023-02-01T09:47:56;6.40;;;2.50;;
21235;SDS011;10775;42.678;26.324;2023-02-01T09:50:39;4.20;;;2.50;;
21235;SDS011;10775;42.678;26.324;2023-02-01T09:55:43;2.42;;;1.70;;
21235;SDS011;10775;42.678;26.324;2023-02-01T10:01:12;1.95;;;1.30;;
21235;SDS011;10775;42.678;26.324;2023-02-01T10:03:42;3.17;;;1.80;;
21235;SDS011;10775;42.678;26.324;2023-02-01T10:09:15;2.35;;;1.35;;
21235;SDS011;10775;42.678;26.324;2023-02-01T10:14:52;1.70;;;1.27;;
21235;SDS011;10775;42.678;26.324;2023-02-01T10:17:46;2.42;;;1.25;;
21235;SDS011;10775;42.678;26.324;2023-02-01T10:23:26;2.35;;;1.60;;
21235;SDS011;10775;42.678;26.324;2023-02-01T10:26:12;2.38;;;1.60;;
21235;SDS011;10775;42.678;26.324;2023-02-01T10:28:48;2.28;;;1.65;;
21235;SDS011;10775;42.678;26.324;2023-02-01T10:31:17;1.98;;;1.30;;
21235;SDS011;10775;42.678;26.324;2023-02-01T10:33:48;2.13;;;1.45;;
21235;SDS011;10775;42.678;26.324;2023-02-01T10:38:42;1.52;;;1.00;;
21235;SDS011;10775;42.678;26.324;2023-02-01T10:41:13;1.80;;;1.30;;
21235;SDS011;10775;42.678;26.324;2023-02-01T10:43:42;1.95;;;1.33;;
21235;SDS011;10775;42.678;26.324;2023-02-01T10:46:10;2.85;;;1.75;;
21235;SDS011;10775;42.678;26.324;2023-02-01T10:48:36;2.17;;;1.30;;
21235;SDS011;10775;42.678;26.324;2023-02-01T10:51:07;1.73;;;1.10;;
21235;SDS011;10775;42.678;26.324;2023-02-01T10:53:45;1.48;;;0.77;;
21235;SDS011;10775;42.678;26.324;2023-02-01T10:56:26;3.70;;;2.17;;
21235;SDS011;10775;42.678;26.324;2023-02-01T10:59:00;7.15;;;1.63;;
21235;SDS011;10775;42.678;26.324;2023-02-01T11:01:33;1.90;;;1.08;;
21235;SDS011;10775;42.678;26.324;2023-02-01T11:04:03;2.78;;;1.30;;
21235;SDS011;10775;42.678;26.324;2023-02-01T11:06:33;3.30;;;1.65;;
21235;SDS011;10775;42.678;26.324;2023-02-01T11:11:33;3.78;;;2.33;;
21235;SDS011;10775;42.678;26.324;2023-02-01T11:14:20;3.42;;;2.17;;
21235;SDS011;10775;42.678;26.324;2023-02-01T11:17:01;1.92;;;1.58;;
21235;SDS011;10775;42.678;26.324;2023-02-01T11:19:46;2.35;;;1.33;;
21235;SDS011;10775;42.678;26.324;2023-02-01T11:22:19;3.78;;;1.75;;
21235;SDS011;10775;42.678;26.324;2023-02-01T11:24:44;2.13;;;1.50;;
21235;SDS011;10775;42.678;26.324;2023-02-01T11:27:16;3.30;;;1.58;;
21235;SDS011;10775;42.678;26.324;2023-02-01T11:29:45;3.22;;;1.58;;
21235;SDS011;10775;42.678;26.324;2023-02-01T11:32:15;3.65;;;1.67;;
21235;SDS011;10775;42.678;26.324;2023-02-01T11:37:25;3.80;;;1.85;;
21235;SDS011;10775;42.678;26.324;2023-02-01T11:39:59;2.40;;;1.42;;
21235;SDS011;10775;42.678;26.324;2023-02-01T11:42:27;3.05;;;1.73;;
21235;SDS011;10775;42.678;26.324;2023-02-01T11:48:07;3.17;;;1.95;;
21235;SDS011;10775;42.678;26.324;2023-02-01T11:50:52;2.85;;;2.15;;
21235;SDS011;10775;42.678;26.324;2023-02-01T11:56:25;2.67;;;1.40;;
21235;SDS011;10775;42.678;26.324;2023-02-01T11:59:24;3.13;;;1.52;;
21235;SDS011;10775;42.678;26.324;2023-02-01T12:01:59;2.55;;;1.75;;
21235;SDS011;10775;42.678;26.324;2023-02-01T12:05:21;3.15;;;1.50;;
21235;SDS011;10775;42.678;26.324;2023-02-01T12:08:16;1.55;;;1.45;;
21235;SDS011;10775;42.678;26.324;2023-02-01T12:16:45;4.30;;;2.22;;
21235;SDS011;10775;42.678;26.324;2023-02-01T12:22:24;3.97;;;1.80;;
21235;SDS011;10775;42.678;26.324;2023-02-01T12:25:16;3.10;;;1.95;;
21235;SDS011;10775;42.678;26.324;2023-02-01T12:35:59;2.92;;;2.10;;
21235;SDS011;10775;42.678;26.324;2023-02-01T12:46:32;10.50;;;4.30;;
21235;SDS011;10775;42.678;26.324;2023-02-01T12:49:17;9.77;;;3.22;;
21235;SDS011;10775;42.678;26.324;2023-02-01T12:51:44;8.50;;;3.40;;
21235;SDS011;10775;42.678;26.324;2023-02-01T12:56:49;4.70;;;2.70;;
21235;SDS011;10775;42.678;26.324;2023-02-01T13:07:06;10.15;;;2.95;;
21235;SDS011;10775;42.678;26.324;2023-02-01T13:09:41;4.63;;;2.50;;
21235;SDS011;10775;42.678;26.324;2023-02-01T13:12:26;4.07;;;2.22;;
21235;SDS011;10775;42.678;26.324;2023-02-01T13:17:32;4.95;;;2.25;;
21235;SDS011;10775;42.678;26.324;2023-02-01T13:22:39;11.45;;;4.53;;
21235;SDS011;10775;42.678;26.324;2023-02-01T13:27:38;6.82;;;3.40;;
21235;SDS011;10775;42.678;26.324;2023-02-01T13:30:07;7.03;;;3.92;;
21235;SDS011;10775;42.678;26.324;2023-02-01T13:35:45;6.32;;;3.58;;
21235;SDS011;10775;42.678;26.324;2023-02-01T13:43:54;5.75;;;3.00;;
21235;SDS011;10775;42.678;26.324;2023-02-01T13:46:24;4.18;;;2.70;;
21235;SDS011;10775;42.678;26.324;2023-02-01T13:51:33;4.68;;;2.70;;
21235;SDS011;10775;42.678;26.324;2023-02-01T13:57:00;8.10;;;2.97;;
21235;SDS011;10775;42.678;26.324;2023-02-01T14:05:02;4.30;;;2.67;;
21235;SDS011;10775;42.678;26.324;2023-02-01T14:07:28;5.57;;;2.65;;
21235;SDS011;10775;42.678;26.324;2023-02-01T14:09:55;5.10;;;2.90;;
21235;SDS011;10775;42.678;26.324;2023-02-01T14:15:19;5.20;;;2.70;;
21235;SDS011;10775;42.678;26.324;2023-02-01T14:17:48;5.50;;;3.35;;
21235;SDS011;10775;42.678;26.324;2023-02-01T14:20:59;4.88;;;2.80;;
21235;SDS011;10775;42.678;26.324;2023-02-01T14:23:13;5.40;;;3.40;;
21235;SDS011;10775;42.678;26.324;2023-02-01T14:25:41;4.50;;;2.63;;
21235;SDS011;10775;42.678;26.324;2023-02-01T14:28:12;4.32;;;2.80;;
21235;SDS011;10775;42.678;26.324;2023-02-01T14:30:48;7.40;;;3.88;;
21235;SDS011;10775;42.678;26.324;2023-02-01T14:33:21;6.18;;;3.50;;
21235;SDS011;10775;42.678;26.324;2023-02-01T14:38:47;4.50;;;3.08;;
21235;SDS011;10775;42.678;26.324;2023-02-01T14:49:33;3.75;;;2.25;;
21235;SDS011;10775;42.678;26.324;2023-02-01T14:52:05;4.53;;;1.98;;
21235;SDS011;10775;42.678;26.324;2023-02-01T14:54:37;5.45;;;2.45;;
21235;SDS011;10775;42.678;26.324;2023-02-01T14:57:05;3.13;;;2.03;;
21235;SDS011;10775;42.678;26.324;2023-02-01T14:59:36;5.05;;;2.60;;
21235;SDS011;10775;42.678;26.324;2023-02-01T15:02:02;5.40;;;2.70;;
21235;SDS011;10775;42.678;26.324;2023-02-01T15:04:45;6.65;;;4.00;;
21235;SDS011;10775;42.678;26.324;2023-02-01T15:07:12;8.68;;;4.45;;
21235;SDS011;10775;42.678;26.324;2023-02-01T15:09:43;8.30;;;4.93;;
21235;SDS011;10775;42.678;26.324;2023-02-01T15:14:37;8.90;;;4.97;;
21235;SDS011;10775;42.678;26.324;2023-02-01T15:17:19;10.55;;;6.20;;
21235;SDS011;10775;42.678;26.324;2023-02-01T15:19:53;11.93;;;5.28;;
21235;SDS011;10775;42.678;26.324;2023-02-01T15:22:20;9.98;;;6.35;;
21235;SDS011;10775;42.678;26.324;2023-02-01T15:24:52;11.45;;;6.30;;
21235;SDS011;10775;42.678;26.324;2023-02-01T15:27:19;14.45;;;8.20;;
21235;SDS011;10775;42.678;26.324;2023-02-01T15:29:45;16.88;;;10.40;;
21235;SDS011;10775;42.678;26.324;2023-02-01T15:32:30;24.02;;;12.95;;
21235;SDS011;10775;42.678;26.324;2023-02-01T15:34:58;18.90;;;9.85;;
21235;SDS011;10775;42.678;26.324;2023-02-01T15:37:28;20.75;;;10.27;;
21235;SDS011;10775;42.678;26.324;2023-02-01T15:42:58;18.20;;;10.50;;
21235;SDS011;10775;42.678;26.324;2023-02-01T15:45:27;17.30;;;10.90;;
21235;SDS011;10775;42.678;26.324;2023-02-01T15:47:55;18.73;;;11.50;;
21235;SDS011;10775;42.678;26.324;2023-02-01T15:50:23;17.17;;;11.52;;
21235;SDS011;10775;42.678;26.324;2023-02-01T15:52:50;18.42;;;10.35;;
21235;SDS011;10775;42.678;26.324;2023-02-01T15:58:20;18.83;;;10.63;;
21235;SDS011;10775;42.678;26.324;2023-02-01T16:03:27;24.77;;;14.02;;
21235;SDS011;10775;42.678;26.324;2023-02-01T16:06:05;25.23;;;14.25;;
21235;SDS011;10775;42.678;26.324;2023-02-01T16:08:33;22.92;;;13.50;;
21235;SDS011;10775;42.678;26.324;2023-02-01T16:13:33;28.77;;;15.10;;
21235;SDS011;10775;42.678;26.324;2023-02-01T16:15:59;25.67;;;14.88;;
21235;SDS011;10775;42.678;26.324;2023-02-01T16:18:25;28.33;;;14.82;;
21235;SDS011;10775;42.678;26.324;2023-02-01T16:20:50;35.20;;;18.58;;
21235;SDS011;10775;42.678;26.324;2023-02-01T16:23:16;25.23;;;13.35;;
21235;SDS011;10775;42.678;26.324;2023-02-01T16:25:42;26.02;;;16.20;;
21235;SDS011;10775;42.678;26.324;2023-02-01T16:28:08;26.90;;;15.73;;
21235;SDS011;10775;42.678;26.324;2023-02-01T16:30:33;25.40;;;12.85;;
21235;SDS011;10775;42.678;26.324;2023-02-01T16:33:01;24.75;;;14.48;;
21235;SDS011;10775;42.678;26.324;2023-02-01T16:35:31;12.10;;;7.25;;
21235;SDS011;10775;42.678;26.324;2023-02-01T16:38:04;18.90;;;11.13;;
21235;SDS011;10775;42.678;26.324;2023-02-01T16:40:38;22.45;;;12.77;;
21235;SDS011;10775;42.678;26.324;2023-02-01T16:43:10;18.50;;;11.00;;
21235;SDS011;10775;42.678;26.324;2023-02-01T16:45:41;6.88;;;3.90;;
21235;SDS011;10775;42.678;26.324;2023-02-01T16:48:34;8.52;;;4.97;;
21235;SDS011;10775;42.678;26.324;2023-02-01T16:51:18;8.57;;;4.80;;
21235;SDS011;10775;42.678;26.324;2023-02-01T16:53:44;8.93;;;4.57;;
21235;SDS011;10775;42.678;26.324;2023-02-01T16:58:39;5.75;;;3.50;;
21235;SDS011;10775;42.678;26.324;2023-02-01T17:01:08;5.45;;;3.38;;
21235;SDS011;10775;42.678;26.324;2023-02-01T17:03:38;7.60;;;4.35;;
21235;SDS011;10775;42.678;26.324;2023-02-01T17:06:05;8.18;;;4.57;;
21235;SDS011;10775;42.678;26.324;2023-02-01T17:08:36;7.22;;;3.80;;
21235;SDS011;10775;42.678;26.324;2023-02-01T17:11:05;7.30;;;4.18;;
21235;SDS011;10775;42.678;26.324;2023-02-01T17:13:32;7.38;;;4.25;;
21235;SDS011;10775;42.678;26.324;2023-02-01T17:18:29;8.75;;;4.57;;
21235;SDS011;10775;42.678;26.324;2023-02-01T17:23:25;5.78;;;3.45;;
21235;SDS011;10775;42.678;26.324;2023-02-01T17:25:52;6.45;;;3.25;;
21235;SDS011;10775;42.678;26.324;2023-02-01T17:28:18;6.70;;;3.22;;
21235;SDS011;10775;42.678;26.324;2023-02-01T17:30:43;4.90;;;3.17;;
21235;SDS011;10775;42.678;26.324;2023-02-01T17:33:31;6.22;;;3.70;;
21235;SDS011;10775;42.678;26.324;2023-02-01T17:35:58;7.60;;;4.50;;
21235;SDS011;10775;42.678;26.324;2023-02-01T17:38:24;8.80;;;4.85;;
21235;SDS011;10775;42.678;26.324;2023-02-01T17:40:50;10.38;;;5.55;;
21235;SDS011;10775;42.678;26.324;2023-02-01T17:43:18;8.35;;;5.40;;
21235;SDS011;10775;42.678;26.324;2023-02-01T17:48:51;18.02;;;8.68;;
21235;SDS011;10775;42.678;26.324;2023-02-01T17:51:18;18.52;;;9.48;;